sensor_id;sensor_type;location;lat;lon;timestamp;P1;durP1;ratioP1;P2;durP2;ratioP2
60354;SDS011;46198;51.464;-0.066;2023-07-24T00:00:40;8.18;;;2.70;;
60354;SDS011;46198;51.464;-0.066;2023-07-24T00:03:09;7.55;;;2.58;;
60354;SDS011;46198;51.464;-0.066;2023-07-24T00:05:37;7.10;;;2.50;;
60354;SDS011;46198;51.464;-0.066;2023-07-24T00:08:06;11.13;;;2.67;;
60354;SDS011;46198;51.464;-0.066;2023-07-24T00:10:34;6.05;;;2.35;;
60354;SDS011;46198;51.464;-0.066;2023-07-24T00:13:02;10.35;;;2.78;;
60354;SDS011;46198;51.464;-0.066;2023-07-24T00:15:30;7.20;;;2.50;;
60354;SDS011;46198;51.464;-0.066;2023-07-24T00:17:58;5.00;;;2.00;;
60354;SDS011;46198;51.464;-0.066;2023-07-24T00:20:28;4.18;;;2.17;;
60354;SDS011;46198;51.464;-0.066;2023-07-24T00:22:56;8.50;;;2.42;;
60354;SDS011;46198;51.464;-0.066;2023-07-24T00:25:24;5.45;;;2.65;;
60354;SDS011;46198;51.464;-0.066;2023-07-24T00:27:52;3.58;;;2.13;;
60354;SDS011;46198;51.464;-0.066;2023-07-24T00:30:21;5.82;;;2.45;;
60354;SDS011;46198;51.464;-0.066;2023-07-24T00:32:49;9.00;;;2.70;;
60354;SDS011;46198;51.464;-0.066;2023-07-24T00:35:17;9.55;;;2.63;;
60354;SDS011;46198;51.464;-0.066;2023-07-24T00:37:47;5.75;;;2.15;;
60354;SDS011;46198;51.464;-0.066;2023-07-24T00:40:15;6.28;;;2.40;;
60354;SDS011;46198;51.464;-0.066;2023-07-24T00:42:46;5.22;;;2.35;;
60354;SDS011;46198;51.464;-0.066;2023-07-24T00:47:43;3.38;;;2.15;;
60354;SDS011;46198;51.464;-0.066;2023-07-24T00:50:12;7.90;;;2.08;;
60354;SDS011;46198;51.464;-0.066;2023-07-24T00:52:41;6.80;;;2.53;;
60354;SDS011;46198;51.464;-0.066;2023-07-24T00:55:12;5.03;;;2.25;;
60354;SDS011;46198;51.464;-0.066;2023-07-24T00:57:43;3.90;;;2.33;;
60354;SDS011;46198;51.464;-0.066;2023-07-24T01:00:12;7.22;;;2.50;;
60354;SDS011;46198;51.464;-0.066;2023-07-24T01:02:40;7.03;;;2.38;;
60354;SDS011;46198;51.464;-0.066;2023-07-24T01:05:10;7.45;;;3.63;;
60354;SDS011;46198;51.464;-0.066;2023-07-24T01:07:41;6.63;;;2.17;;
60354;SDS011;46198;51.464;-0.066;2023-07-24T01:10:09;6.63;;;2.25;;
60354;SDS011;46198;51.464;-0.066;2023-07-24T01:12:40;4.63;;;2.22;;
60354;SDS011;46198;51.464;-0.066;2023-07-24T01:15:13;4.07;;;2.25;;
60354;SDS011;46198;51.464;-0.066;2023-07-24T01:17:48;5.15;;;2.22;;
60354;SDS011;46198;51.464;-0.066;2023-07-24T01:20:21;7.15;;;2.55;;
60354;SDS011;46198;51.464;-0.066;2023-07-24T01:22:59;2.85;;;2.55;;
60354;SDS011;46198;51.464;-0.066;2023-07-24T01:25:49;8.35;;;2.90;;
60354;SDS011;46198;51.464;-0.066;2023-07-24T01:28:21;5.03;;;2.30;;
60354;SDS011;46198;51.464;-0.066;2023-07-24T01:30:50;4.03;;;1.85;;
60354;SDS011;46198;51.464;-0.066;2023-07-24T01:33:19;6.25;;;2.30;;
60354;SDS011;46198;51.464;-0.066;2023-07-24T01:35:48;4.90;;;2.15;;
60354;SDS011;46198;51.464;-0.066;2023-07-24T01:38:18;5.20;;;2.20;;
60354;SDS011;46198;51.464;-0.066;2023-07-24T01:40:47;2.78;;;2.17;;
60354;SDS011;46198;51.464;-0.066;2023-07-24T01:43:18;8.70;;;2.92;;
60354;SDS011;46198;51.464;-0.066;2023-07-24T01:45:47;7.30;;;2.70;;
60354;SDS011;46198;51.464;-0.066;2023-07-24T01:48:15;5.20;;;2.15;;
60354;SDS011;46198;51.464;-0.066;2023-07-24T01:50:43;4.68;;;2.30;;
60354;SDS011;46198;51.464;-0.066;2023-07-24T01:53:11;6.18;;;2.40;;
60354;SDS011;46198;51.464;-0.066;2023-07-24T01:55:39;7.75;;;2.28;;
60354;SDS011;46198;51.464;-0.066;2023-07-24T01:58:09;4.03;;;2.80;;
60354;SDS011;46198;51.464;-0.066;2023-07-24T02:00:37;5.72;;;2.58;;
60354;SDS011;46198;51.464;-0.066;2023-07-24T02:03:05;7.00;;;2.30;;
60354;SDS011;46198;51.464;-0.066;2023-07-24T02:05:34;5.55;;;2.45;;
60354;SDS011;46198;51.464;-0.066;2023-07-24T02:08:02;6.50;;;2.33;;
60354;SDS011;46198;51.464;-0.066;2023-07-24T02:10:30;5.03;;;2.35;;
60354;SDS011;46198;51.464;-0.066;2023-07-24T02:12:59;5.80;;;2.42;;
60354;SDS011;46198;51.464;-0.066;2023-07-24T02:15:28;5.50;;;2.60;;
60354;SDS011;46198;51.464;-0.066;2023-07-24T02:17:56;4.65;;;2.10;;
60354;SDS011;46198;51.464;-0.066;2023-07-24T02:20:25;4.60;;;2.83;;
60354;SDS011;46198;51.464;-0.066;2023-07-24T02:22:53;5.25;;;2.30;;
60354;SDS011;46198;51.464;-0.066;2023-07-24T02:25:21;8.55;;;3.03;;
60354;SDS011;46198;51.464;-0.066;2023-07-24T02:27:49;8.35;;;2.78;;
60354;SDS011;46198;51.464;-0.066;2023-07-24T02:30:17;3.30;;;2.58;;
60354;SDS011;46198;51.464;-0.066;2023-07-24T02:32:46;5.95;;;2.38;;
60354;SDS011;46198;51.464;-0.066;2023-07-24T02:35:14;5.72;;;2.40;;
60354;SDS011;46198;51.464;-0.066;2023-07-24T02:37:45;8.63;;;2.47;;
60354;SDS011;46198;51.464;-0.066;2023-07-24T02:40:13;5.50;;;2.55;;
60354;SDS011;46198;51.464;-0.066;2023-07-24T02:42:41;5.70;;;2.45;;
60354;SDS011;46198;51.464;-0.066;2023-07-24T02:45:11;4.80;;;2.70;;
60354;SDS011;46198;51.464;-0.066;2023-07-24T02:47:39;5.57;;;2.30;;
60354;SDS011;46198;51.464;-0.066;2023-07-24T02:50:10;8.02;;;2.30;;
60354;SDS011;46198;51.464;-0.066;2023-07-24T02:52:38;5.75;;;2.40;;
60354;SDS011;46198;51.464;-0.066;2023-07-24T02:55:07;4.32;;;2.22;;
60354;SDS011;46198;51.464;-0.066;2023-07-24T02:57:35;5.05;;;2.30;;
60354;SDS011;46198;51.464;-0.066;2023-07-24T03:00:04;5.90;;;2.17;;
60354;SDS011;46198;51.464;-0.066;2023-07-24T03:02:33;7.00;;;2.72;;
60354;SDS011;46198;51.464;-0.066;2023-07-24T03:05:01;4.70;;;2.30;;
60354;SDS011;46198;51.464;-0.066;2023-07-24T03:07:31;5.53;;;2.13;;
60354;SDS011;46198;51.464;-0.066;2023-07-24T03:10:00;6.70;;;2.30;;
60354;SDS011;46198;51.464;-0.066;2023-07-24T03:12:29;5.28;;;2.50;;
60354;SDS011;46198;51.464;-0.066;2023-07-24T03:14:57;6.47;;;2.50;;
60354;SDS011;46198;51.464;-0.066;2023-07-24T03:17:26;3.28;;;2.10;;
60354;SDS011;46198;51.464;-0.066;2023-07-24T03:19:54;4.40;;;2.20;;
60354;SDS011;46198;51.464;-0.066;2023-07-24T03:22:22;3.35;;;1.90;;
60354;SDS011;46198;51.464;-0.066;2023-07-24T03:24:52;6.05;;;2.55;;
60354;SDS011;46198;51.464;-0.066;2023-07-24T03:27:20;8.85;;;2.15;;
60354;SDS011;46198;51.464;-0.066;2023-07-24T03:29:49;4.03;;;2.15;;
60354;SDS011;46198;51.464;-0.066;2023-07-24T03:32:18;8.68;;;2.53;;
60354;SDS011;46198;51.464;-0.066;2023-07-24T03:34:46;7.72;;;2.60;;
60354;SDS011;46198;51.464;-0.066;2023-07-24T03:37:14;3.50;;;2.13;;
60354;SDS011;46198;51.464;-0.066;2023-07-24T03:39:43;6.13;;;2.33;;
60354;SDS011;46198;51.464;-0.066;2023-07-24T03:42:23;4.88;;;2.30;;
60354;SDS011;46198;51.464;-0.066;2023-07-24T03:44:52;6.25;;;2.17;;
60354;SDS011;46198;51.464;-0.066;2023-07-24T03:47:21;6.68;;;2.50;;
60354;SDS011;46198;51.464;-0.066;2023-07-24T03:49:49;6.93;;;2.08;;
60354;SDS011;46198;51.464;-0.066;2023-07-24T03:52:18;6.72;;;2.60;;
60354;SDS011;46198;51.464;-0.066;2023-07-24T03:54:46;6.38;;;2.38;;
60354;SDS011;46198;51.464;-0.066;2023-07-24T03:57:15;6.15;;;2.00;;
60354;SDS011;46198;51.464;-0.066;2023-07-24T03:59:43;4.18;;;2.40;;
60354;SDS011;46198;51.464;-0.066;2023-07-24T04:02:12;7.20;;;2.45;;
60354;SDS011;46198;51.464;-0.066;2023-07-24T04:04:40;9.57;;;2.60;;
60354;SDS011;46198;51.464;-0.066;2023-07-24T04:07:08;4.50;;;2.50;;
60354;SDS011;46198;51.464;-0.066;2023-07-24T04:09:36;6.22;;;2.40;;
60354;SDS011;46198;51.464;-0.066;2023-07-24T04:12:05;5.00;;;1.90;;
60354;SDS011;46198;51.464;-0.066;2023-07-24T04:14:34;6.53;;;2.65;;
60354;SDS011;46198;51.464;-0.066;2023-07-24T04:17:02;4.53;;;2.38;;
60354;SDS011;46198;51.464;-0.066;2023-07-24T04:19:32;5.97;;;2.97;;
60354;SDS011;46198;51.464;-0.066;2023-07-24T04:22:01;4.63;;;3.13;;
60354;SDS011;46198;51.464;-0.066;2023-07-24T04:24:29;6.13;;;2.58;;
60354;SDS011;46198;51.464;-0.066;2023-07-24T04:26:57;5.15;;;2.45;;
60354;SDS011;46198;51.464;-0.066;2023-07-24T04:29:25;5.65;;;2.35;;
60354;SDS011;46198;51.464;-0.066;2023-07-24T04:31:54;7.90;;;2.30;;
60354;SDS011;46198;51.464;-0.066;2023-07-24T04:34:22;6.78;;;2.65;;
60354;SDS011;46198;51.464;-0.066;2023-07-24T04:36:51;5.80;;;2.28;;
60354;SDS011;46198;51.464;-0.066;2023-07-24T04:39:19;6.10;;;2.35;;
60354;SDS011;46198;51.464;-0.066;2023-07-24T04:41:47;6.63;;;2.22;;
60354;SDS011;46198;51.464;-0.066;2023-07-24T04:44:15;3.03;;;2.00;;
60354;SDS011;46198;51.464;-0.066;2023-07-24T04:46:43;4.05;;;2.03;;
60354;SDS011;46198;51.464;-0.066;2023-07-24T04:49:12;6.85;;;2.40;;
60354;SDS011;46198;51.464;-0.066;2023-07-24T04:51:41;8.43;;;2.55;;
60354;SDS011;46198;51.464;-0.066;2023-07-24T04:54:09;5.82;;;2.60;;
60354;SDS011;46198;51.464;-0.066;2023-07-24T04:56:37;5.32;;;2.10;;
60354;SDS011;46198;51.464;-0.066;2023-07-24T04:59:05;5.78;;;2.30;;
60354;SDS011;46198;51.464;-0.066;2023-07-24T05:01:33;5.80;;;2.80;;
60354;SDS011;46198;51.464;-0.066;2023-07-24T05:04:01;5.80;;;2.40;;
60354;SDS011;46198;51.464;-0.066;2023-07-24T05:06:30;7.10;;;2.83;;
60354;SDS011;46198;51.464;-0.066;2023-07-24T05:08:59;7.28;;;2.47;;
60354;SDS011;46198;51.464;-0.066;2023-07-24T05:11:27;5.55;;;2.05;;
60354;SDS011;46198;51.464;-0.066;2023-07-24T05:13:55;5.05;;;2.03;;
60354;SDS011;46198;51.464;-0.066;2023-07-24T05:16:23;4.82;;;2.33;;
60354;SDS011;46198;51.464;-0.066;2023-07-24T05:18:51;6.15;;;2.03;;
60354;SDS011;46198;51.464;-0.066;2023-07-24T05:21:19;4.35;;;1.88;;
60354;SDS011;46198;51.464;-0.066;2023-07-24T05:23:48;3.90;;;1.83;;
60354;SDS011;46198;51.464;-0.066;2023-07-24T05:26:16;4.75;;;2.05;;
60354;SDS011;46198;51.464;-0.066;2023-07-24T05:28:44;5.80;;;2.30;;
60354;SDS011;46198;51.464;-0.066;2023-07-24T05:31:13;5.63;;;2.10;;
60354;SDS011;46198;51.464;-0.066;2023-07-24T05:33:41;5.32;;;2.05;;
60354;SDS011;46198;51.464;-0.066;2023-07-24T05:36:09;4.15;;;2.25;;
60354;SDS011;46198;51.464;-0.066;2023-07-24T05:38:37;3.42;;;2.03;;
60354;SDS011;46198;51.464;-0.066;2023-07-24T05:41:06;5.72;;;2.15;;
60354;SDS011;46198;51.464;-0.066;2023-07-24T05:43:34;5.45;;;2.40;;
60354;SDS011;46198;51.464;-0.066;2023-07-24T05:46:02;5.93;;;1.85;;
60354;SDS011;46198;51.464;-0.066;2023-07-24T05:48:31;3.63;;;2.13;;
60354;SDS011;46198;51.464;-0.066;2023-07-24T05:50:59;6.07;;;1.90;;
60354;SDS011;46198;51.464;-0.066;2023-07-24T05:53:27;4.35;;;1.90;;
60354;SDS011;46198;51.464;-0.066;2023-07-24T05:55:56;5.35;;;2.10;;
60354;SDS011;46198;51.464;-0.066;2023-07-24T05:58:28;4.97;;;2.10;;
60354;SDS011;46198;51.464;-0.066;2023-07-24T06:00:56;4.47;;;1.80;;
60354;SDS011;46198;51.464;-0.066;2023-07-24T06:03:24;3.03;;;2.05;;
60354;SDS011;46198;51.464;-0.066;2023-07-24T06:05:53;6.00;;;2.10;;
60354;SDS011;46198;51.464;-0.066;2023-07-24T06:08:22;3.25;;;1.83;;
60354;SDS011;46198;51.464;-0.066;2023-07-24T06:10:51;5.72;;;2.40;;
60354;SDS011;46198;51.464;-0.066;2023-07-24T06:13:19;6.20;;;1.90;;
60354;SDS011;46198;51.464;-0.066;2023-07-24T06:15:49;4.00;;;2.05;;
60354;SDS011;46198;51.464;-0.066;2023-07-24T06:18:18;4.80;;;1.80;;
60354;SDS011;46198;51.464;-0.066;2023-07-24T06:20:46;4.30;;;1.83;;
60354;SDS011;46198;51.464;-0.066;2023-07-24T06:23:16;5.30;;;2.22;;
60354;SDS011;46198;51.464;-0.066;2023-07-24T06:25:45;4.60;;;2.22;;
60354;SDS011;46198;51.464;-0.066;2023-07-24T06:28:13;5.50;;;2.10;;
60354;SDS011;46198;51.464;-0.066;2023-07-24T06:30:41;3.70;;;1.70;;
60354;SDS011;46198;51.464;-0.066;2023-07-24T06:33:11;5.57;;;2.28;;
60354;SDS011;46198;51.464;-0.066;2023-07-24T06:35:39;5.60;;;1.90;;
60354;SDS011;46198;51.464;-0.066;2023-07-24T06:38:08;4.43;;;2.40;;
60354;SDS011;46198;51.464;-0.066;2023-07-24T06:40:36;5.10;;;2.25;;
60354;SDS011;46198;51.464;-0.066;2023-07-24T06:43:04;4.97;;;1.83;;
60354;SDS011;46198;51.464;-0.066;2023-07-24T06:45:33;6.88;;;2.53;;
60354;SDS011;46198;51.464;-0.066;2023-07-24T06:48:01;3.85;;;2.03;;
60354;SDS011;46198;51.464;-0.066;2023-07-24T06:50:31;5.30;;;2.50;;
60354;SDS011;46198;51.464;-0.066;2023-07-24T06:52:59;7.82;;;2.70;;
60354;SDS011;46198;51.464;-0.066;2023-07-24T06:55:28;4.13;;;2.20;;
60354;SDS011;46198;51.464;-0.066;2023-07-24T06:57:56;4.72;;;2.33;;
60354;SDS011;46198;51.464;-0.066;2023-07-24T07:00:24;3.67;;;2.50;;
60354;SDS011;46198;51.464;-0.066;2023-07-24T07:02:53;5.85;;;2.35;;
60354;SDS011;46198;51.464;-0.066;2023-07-24T07:05:21;10.60;;;2.85;;
60354;SDS011;46198;51.464;-0.066;2023-07-24T07:07:50;3.72;;;2.33;;
60354;SDS011;46198;51.464;-0.066;2023-07-24T07:10:19;5.05;;;2.22;;
60354;SDS011;46198;51.464;-0.066;2023-07-24T07:12:47;5.35;;;2.00;;
60354;SDS011;46198;51.464;-0.066;2023-07-24T07:15:15;4.57;;;2.42;;
60354;SDS011;46198;51.464;-0.066;2023-07-24T07:17:44;4.35;;;1.98;;
60354;SDS011;46198;51.464;-0.066;2023-07-24T07:20:12;6.65;;;2.17;;
60354;SDS011;46198;51.464;-0.066;2023-07-24T07:22:40;4.45;;;2.28;;
60354;SDS011;46198;51.464;-0.066;2023-07-24T07:25:10;3.95;;;2.13;;
60354;SDS011;46198;51.464;-0.066;2023-07-24T07:27:38;6.32;;;2.05;;
60354;SDS011;46198;51.464;-0.066;2023-07-24T07:30:06;5.18;;;1.75;;
60354;SDS011;46198;51.464;-0.066;2023-07-24T07:32:35;3.50;;;1.98;;
60354;SDS011;46198;51.464;-0.066;2023-07-24T07:35:04;5.90;;;2.35;;
60354;SDS011;46198;51.464;-0.066;2023-07-24T07:37:33;4.50;;;2.65;;
60354;SDS011;46198;51.464;-0.066;2023-07-24T07:40:01;6.45;;;2.35;;
60354;SDS011;46198;51.464;-0.066;2023-07-24T07:45:26;6.10;;;2.85;;
60354;SDS011;46198;51.464;-0.066;2023-07-24T07:47:54;3.00;;;2.67;;
60354;SDS011;46198;51.464;-0.066;2023-07-24T07:50:22;6.50;;;2.72;;
60354;SDS011;46198;51.464;-0.066;2023-07-24T07:52:51;5.07;;;2.55;;
60354;SDS011;46198;51.464;-0.066;2023-07-24T07:55:19;2.67;;;2.20;;
60354;SDS011;46198;51.464;-0.066;2023-07-24T07:57:47;4.35;;;2.53;;
60354;SDS011;46198;51.464;-0.066;2023-07-24T08:00:17;4.90;;;2.72;;
60354;SDS011;46198;51.464;-0.066;2023-07-24T08:02:45;5.05;;;2.53;;
60354;SDS011;46198;51.464;-0.066;2023-07-24T08:05:13;6.05;;;2.60;;
60354;SDS011;46198;51.464;-0.066;2023-07-24T08:07:47;5.13;;;2.75;;
60354;SDS011;46198;51.464;-0.066;2023-07-24T08:10:15;5.97;;;3.05;;
60354;SDS011;46198;51.464;-0.066;2023-07-24T08:12:43;5.03;;;2.88;;
60354;SDS011;46198;51.464;-0.066;2023-07-24T08:15:11;5.03;;;3.05;;
60354;SDS011;46198;51.464;-0.066;2023-07-24T08:17:41;5.57;;;3.25;;
60354;SDS011;46198;51.464;-0.066;2023-07-24T08:20:10;5.28;;;3.40;;
60354;SDS011;46198;51.464;-0.066;2023-07-24T08:22:38;6.30;;;3.15;;
60354;SDS011;46198;51.464;-0.066;2023-07-24T08:25:06;6.68;;;2.83;;
60354;SDS011;46198;51.464;-0.066;2023-07-24T08:27:35;4.50;;;2.90;;
60354;SDS011;46198;51.464;-0.066;2023-07-24T08:30:23;5.03;;;3.15;;
60354;SDS011;46198;51.464;-0.066;2023-07-24T08:32:53;6.55;;;3.20;;
60354;SDS011;46198;51.464;-0.066;2023-07-24T08:35:21;11.57;;;3.97;;
60354;SDS011;46198;51.464;-0.066;2023-07-24T08:37:49;6.75;;;3.60;;
60354;SDS011;46198;51.464;-0.066;2023-07-24T08:40:18;3.22;;;1.90;;
60354;SDS011;46198;51.464;-0.066;2023-07-24T08:42:46;4.55;;;1.58;;
60354;SDS011;46198;51.464;-0.066;2023-07-24T08:45:17;1.90;;;1.63;;
60354;SDS011;46198;51.464;-0.066;2023-07-24T08:47:46;1.33;;;1.23;;
60354;SDS011;46198;51.464;-0.066;2023-07-24T08:50:16;4.63;;;1.42;;
60354;SDS011;46198;51.464;-0.066;2023-07-24T08:52:46;2.63;;;1.60;;
60354;SDS011;46198;51.464;-0.066;2023-07-24T08:55:14;4.55;;;2.03;;
60354;SDS011;46198;51.464;-0.066;2023-07-24T08:57:42;1.50;;;1.30;;
60354;SDS011;46198;51.464;-0.066;2023-07-24T09:00:11;1.30;;;1.20;;
60354;SDS011;46198;51.464;-0.066;2023-07-24T09:02:40;1.55;;;1.35;;
60354;SDS011;46198;51.464;-0.066;2023-07-24T09:05:08;1.30;;;1.20;;
60354;SDS011;46198;51.464;-0.066;2023-07-24T09:07:39;2.87;;;1.83;;
60354;SDS011;46198;51.464;-0.066;2023-07-24T09:10:08;1.95;;;1.40;;
60354;SDS011;46198;51.464;-0.066;2023-07-24T09:12:37;2.22;;;1.50;;
60354;SDS011;46198;51.464;-0.066;2023-07-24T09:15:10;2.95;;;1.73;;
60354;SDS011;46198;51.464;-0.066;2023-07-24T09:17:46;1.90;;;1.70;;
60354;SDS011;46198;51.464;-0.066;2023-07-24T09:20:15;2.05;;;1.95;;
60354;SDS011;46198;51.464;-0.066;2023-07-24T09:22:58;3.80;;;1.60;;
60354;SDS011;46198;51.464;-0.066;2023-07-24T09:25:42;2.10;;;1.70;;
60354;SDS011;46198;51.464;-0.066;2023-07-24T09:28:11;1.55;;;1.45;;
60354;SDS011;46198;51.464;-0.066;2023-07-24T09:30:41;2.10;;;1.90;;
60354;SDS011;46198;51.464;-0.066;2023-07-24T09:33:18;1.52;;;1.42;;
60354;SDS011;46198;51.464;-0.066;2023-07-24T09:35:56;2.65;;;1.30;;
60354;SDS011;46198;51.464;-0.066;2023-07-24T09:38:26;1.50;;;1.40;;
60354;SDS011;46198;51.464;-0.066;2023-07-24T09:40:55;5.57;;;1.50;;
60354;SDS011;46198;51.464;-0.066;2023-07-24T09:43:24;3.10;;;1.47;;
60354;SDS011;46198;51.464;-0.066;2023-07-24T09:46:06;1.98;;;1.10;;
60354;SDS011;46198;51.464;-0.066;2023-07-24T09:48:36;1.40;;;1.30;;
60354;SDS011;46198;51.464;-0.066;2023-07-24T09:54:06;5.60;;;1.58;;
60354;SDS011;46198;51.464;-0.066;2023-07-24T09:56:36;2.08;;;1.08;;
60354;SDS011;46198;51.464;-0.066;2023-07-24T09:59:19;3.35;;;1.00;;
60354;SDS011;46198;51.464;-0.066;2023-07-24T10:01:49;3.25;;;0.70;;
60354;SDS011;46198;51.464;-0.066;2023-07-24T10:04:18;2.13;;;0.50;;
60354;SDS011;46198;51.464;-0.066;2023-07-24T10:06:47;2.55;;;0.63;;
60354;SDS011;46198;51.464;-0.066;2023-07-24T10:09:17;0.73;;;0.57;;
60354;SDS011;46198;51.464;-0.066;2023-07-24T10:11:49;0.52;;;0.52;;
60354;SDS011;46198;51.464;-0.066;2023-07-24T10:14:17;0.85;;;0.50;;
60354;SDS011;46198;51.464;-0.066;2023-07-24T10:16:45;1.05;;;0.60;;
60354;SDS011;46198;51.464;-0.066;2023-07-24T10:19:15;0.77;;;0.70;;
60354;SDS011;46198;51.464;-0.066;2023-07-24T10:21:44;0.68;;;0.60;;
60354;SDS011;46198;51.464;-0.066;2023-07-24T10:24:13;0.80;;;0.80;;
60354;SDS011;46198;51.464;-0.066;2023-07-24T10:26:58;0.65;;;0.50;;
60354;SDS011;46198;51.464;-0.066;2023-07-24T10:29:26;0.40;;;0.40;;
60354;SDS011;46198;51.464;-0.066;2023-07-24T10:31:54;0.73;;;0.43;;
60354;SDS011;46198;51.464;-0.066;2023-07-24T10:34:23;1.13;;;0.60;;
60354;SDS011;46198;51.464;-0.066;2023-07-24T10:37:01;0.65;;;0.50;;
60354;SDS011;46198;51.464;-0.066;2023-07-24T10:39:36;1.38;;;0.50;;
60354;SDS011;46198;51.464;-0.066;2023-07-24T10:42:08;0.77;;;0.68;;
60354;SDS011;46198;51.464;-0.066;2023-07-24T10:44:37;0.50;;;0.50;;
60354;SDS011;46198;51.464;-0.066;2023-07-24T10:47:05;0.43;;;0.43;;
60354;SDS011;46198;51.464;-0.066;2023-07-24T10:49:33;1.35;;;0.63;;
60354;SDS011;46198;51.464;-0.066;2023-07-24T10:52:02;0.82;;;0.70;;
60354;SDS011;46198;51.464;-0.066;2023-07-24T10:54:31;0.75;;;0.45;;
60354;SDS011;46198;51.464;-0.066;2023-07-24T10:56:59;0.45;;;0.45;;
60354;SDS011;46198;51.464;-0.066;2023-07-24T10:59:39;1.45;;;0.60;;
60354;SDS011;46198;51.464;-0.066;2023-07-24T11:02:07;1.90;;;0.75;;
60354;SDS011;46198;51.464;-0.066;2023-07-24T11:04:36;0.85;;;0.60;;
60354;SDS011;46198;51.464;-0.066;2023-07-24T11:07:04;1.33;;;0.60;;
60354;SDS011;46198;51.464;-0.066;2023-07-24T11:09:36;2.30;;;0.80;;
60354;SDS011;46198;51.464;-0.066;2023-07-24T11:12:10;0.80;;;0.80;;
60354;SDS011;46198;51.464;-0.066;2023-07-24T11:14:48;0.70;;;0.70;;
60354;SDS011;46198;51.464;-0.066;2023-07-24T11:17:16;1.45;;;0.80;;
60354;SDS011;46198;51.464;-0.066;2023-07-24T11:19:45;1.45;;;0.98;;
60354;SDS011;46198;51.464;-0.066;2023-07-24T11:22:13;1.77;;;0.90;;
60354;SDS011;46198;51.464;-0.066;2023-07-24T11:24:43;2.17;;;0.98;;
60354;SDS011;46198;51.464;-0.066;2023-07-24T11:27:15;2.20;;;1.07;;
60354;SDS011;46198;51.464;-0.066;2023-07-24T11:29:48;1.38;;;1.17;;
60354;SDS011;46198;51.464;-0.066;2023-07-24T11:32:17;1.35;;;1.02;;
60354;SDS011;46198;51.464;-0.066;2023-07-24T11:34:46;1.20;;;0.95;;
60354;SDS011;46198;51.464;-0.066;2023-07-24T11:37:15;1.00;;;0.82;;
60354;SDS011;46198;51.464;-0.066;2023-07-24T11:39:54;1.30;;;0.90;;
60354;SDS011;46198;51.464;-0.066;2023-07-24T11:42:26;0.70;;;0.68;;
60354;SDS011;46198;51.464;-0.066;2023-07-24T11:44:59;1.45;;;0.77;;
60354;SDS011;46198;51.464;-0.066;2023-07-24T11:47:29;1.35;;;0.90;;
60354;SDS011;46198;51.464;-0.066;2023-07-24T11:49:58;1.73;;;0.80;;
60354;SDS011;46198;51.464;-0.066;2023-07-24T11:52:37;2.97;;;0.80;;
60354;SDS011;46198;51.464;-0.066;2023-07-24T11:55:06;1.17;;;0.80;;
60354;SDS011;46198;51.464;-0.066;2023-07-24T11:57:35;1.27;;;0.88;;
60354;SDS011;46198;51.464;-0.066;2023-07-24T12:00:05;0.75;;;0.75;;
60354;SDS011;46198;51.464;-0.066;2023-07-24T12:02:44;2.58;;;0.90;;
60354;SDS011;46198;51.464;-0.066;2023-07-24T12:05:13;2.80;;;0.70;;
60354;SDS011;46198;51.464;-0.066;2023-07-24T12:07:42;0.90;;;0.70;;
60354;SDS011;46198;51.464;-0.066;2023-07-24T12:10:12;0.73;;;0.60;;
60354;SDS011;46198;51.464;-0.066;2023-07-24T12:12:42;0.77;;;0.70;;
60354;SDS011;46198;51.464;-0.066;2023-07-24T12:15:14;1.13;;;0.90;;
60354;SDS011;46198;51.464;-0.066;2023-07-24T12:17:43;0.70;;;0.60;;
60354;SDS011;46198;51.464;-0.066;2023-07-24T12:20:11;1.35;;;0.60;;
60354;SDS011;46198;51.464;-0.066;2023-07-24T12:22:39;1.25;;;0.70;;
60354;SDS011;46198;51.464;-0.066;2023-07-24T12:25:07;0.68;;;0.68;;
60354;SDS011;46198;51.464;-0.066;2023-07-24T12:27:36;0.70;;;0.70;;
60354;SDS011;46198;51.464;-0.066;2023-07-24T12:30:06;1.35;;;1.15;;
60354;SDS011;46198;51.464;-0.066;2023-07-24T12:32:36;1.42;;;0.70;;
60354;SDS011;46198;51.464;-0.066;2023-07-24T12:35:05;0.55;;;0.55;;
60354;SDS011;46198;51.464;-0.066;2023-07-24T12:37:35;0.95;;;0.90;;
60354;SDS011;46198;51.464;-0.066;2023-07-24T12:42:34;0.73;;;0.70;;
60354;SDS011;46198;51.464;-0.066;2023-07-24T12:45:02;1.83;;;0.70;;
60354;SDS011;46198;51.464;-0.066;2023-07-24T12:47:32;1.67;;;0.63;;
60354;SDS011;46198;51.464;-0.066;2023-07-24T12:50:01;0.70;;;0.70;;
60354;SDS011;46198;51.464;-0.066;2023-07-24T12:52:33;1.15;;;0.80;;
60354;SDS011;46198;51.464;-0.066;2023-07-24T12:55:01;1.05;;;0.85;;
60354;SDS011;46198;51.464;-0.066;2023-07-24T12:57:30;0.85;;;0.65;;
60354;SDS011;46198;51.464;-0.066;2023-07-24T12:59:58;2.00;;;0.90;;
60354;SDS011;46198;51.464;-0.066;2023-07-24T13:02:26;1.92;;;1.10;;
60354;SDS011;46198;51.464;-0.066;2023-07-24T13:04:54;0.73;;;0.73;;
60354;SDS011;46198;51.464;-0.066;2023-07-24T13:07:24;4.15;;;1.10;;
60354;SDS011;46198;51.464;-0.066;2023-07-24T13:09:52;3.08;;;1.05;;
60354;SDS011;46198;51.464;-0.066;2023-07-24T13:12:21;1.48;;;0.90;;
60354;SDS011;46198;51.464;-0.066;2023-07-24T13:14:49;3.17;;;1.10;;
60354;SDS011;46198;51.464;-0.066;2023-07-24T13:17:17;1.33;;;1.00;;
60354;SDS011;46198;51.464;-0.066;2023-07-24T13:19:45;5.50;;;1.38;;
60354;SDS011;46198;51.464;-0.066;2023-07-24T13:22:13;4.30;;;1.25;;
60354;SDS011;46198;51.464;-0.066;2023-07-24T13:24:43;1.75;;;1.30;;
60354;SDS011;46198;51.464;-0.066;2023-07-24T13:27:11;3.83;;;1.27;;
60354;SDS011;46198;51.464;-0.066;2023-07-24T13:29:39;4.60;;;1.30;;
60354;SDS011;46198;51.464;-0.066;2023-07-24T13:32:07;3.45;;;1.30;;
60354;SDS011;46198;51.464;-0.066;2023-07-24T13:34:37;3.17;;;1.40;;
60354;SDS011;46198;51.464;-0.066;2023-07-24T13:37:05;12.18;;;3.55;;
60354;SDS011;46198;51.464;-0.066;2023-07-24T13:39:35;2.78;;;1.55;;
60354;SDS011;46198;51.464;-0.066;2023-07-24T13:42:05;3.47;;;1.52;;
60354;SDS011;46198;51.464;-0.066;2023-07-24T13:44:33;3.22;;;1.45;;
60354;SDS011;46198;51.464;-0.066;2023-07-24T13:47:01;2.65;;;1.55;;
60354;SDS011;46198;51.464;-0.066;2023-07-24T13:49:30;2.83;;;1.40;;
60354;SDS011;46198;51.464;-0.066;2023-07-24T13:51:58;2.95;;;1.38;;
60354;SDS011;46198;51.464;-0.066;2023-07-24T13:54:26;4.15;;;1.77;;
60354;SDS011;46198;51.464;-0.066;2023-07-24T13:56:54;3.15;;;1.65;;
60354;SDS011;46198;51.464;-0.066;2023-07-24T13:59:23;1.80;;;1.50;;
60354;SDS011;46198;51.464;-0.066;2023-07-24T14:01:51;4.47;;;1.70;;
60354;SDS011;46198;51.464;-0.066;2023-07-24T14:04:19;3.60;;;1.85;;
60354;SDS011;46198;51.464;-0.066;2023-07-24T14:06:47;2.03;;;1.30;;
60354;SDS011;46198;51.464;-0.066;2023-07-24T14:09:15;4.20;;;1.75;;
60354;SDS011;46198;51.464;-0.066;2023-07-24T14:11:43;3.25;;;1.45;;
60354;SDS011;46198;51.464;-0.066;2023-07-24T14:14:12;3.97;;;1.50;;
60354;SDS011;46198;51.464;-0.066;2023-07-24T14:16:41;3.60;;;1.42;;
60354;SDS011;46198;51.464;-0.066;2023-07-24T14:19:09;4.75;;;1.60;;
60354;SDS011;46198;51.464;-0.066;2023-07-24T14:21:37;7.38;;;1.80;;
60354;SDS011;46198;51.464;-0.066;2023-07-24T14:24:05;4.18;;;1.67;;
60354;SDS011;46198;51.464;-0.066;2023-07-24T14:26:33;4.93;;;1.70;;
60354;SDS011;46198;51.464;-0.066;2023-07-24T14:29:03;3.70;;;1.65;;
60354;SDS011;46198;51.464;-0.066;2023-07-24T14:31:31;2.67;;;1.45;;
60354;SDS011;46198;51.464;-0.066;2023-07-24T14:34:01;4.72;;;1.70;;
60354;SDS011;46198;51.464;-0.066;2023-07-24T14:36:30;3.03;;;1.40;;
60354;SDS011;46198;51.464;-0.066;2023-07-24T14:41:28;1.77;;;1.40;;
60354;SDS011;46198;51.464;-0.066;2023-07-24T14:43:57;3.00;;;1.25;;
60354;SDS011;46198;51.464;-0.066;2023-07-24T14:46:25;3.47;;;1.83;;
60354;SDS011;46198;51.464;-0.066;2023-07-24T14:48:53;2.88;;;1.60;;
60354;SDS011;46198;51.464;-0.066;2023-07-24T14:51:23;3.22;;;1.83;;
60354;SDS011;46198;51.464;-0.066;2023-07-24T14:53:51;2.40;;;1.60;;
60354;SDS011;46198;51.464;-0.066;2023-07-24T14:56:19;1.80;;;1.67;;
60354;SDS011;46198;51.464;-0.066;2023-07-24T14:58:47;3.88;;;1.80;;